sensor_id;sensor_type;location;lat;lon;timestamp;pressure;altitude;pressure_sealevel;temperature;humidity
6030;BME280;3043;42.682;23.376;2023-04-20T00:01:32;94542.31;;;11.14;100.00
6030;BME280;3043;42.682;23.376;2023-04-20T00:03:57;94545.13;;;10.82;100.00
6030;BME280;3043;42.682;23.376;2023-04-20T00:06:25;94540.00;;;10.54;100.00
6030;BME280;3043;42.682;23.376;2023-04-20T00:08:53;94537.44;;;10.53;100.00
6030;BME280;3043;42.682;23.376;2023-04-20T00:11:19;94529.31;;;10.39;100.00
6030;BME280;3043;42.682;23.376;2023-04-20T00:13:44;94535.19;;;10.42;100.00
6030;BME280;3043;42.682;23.376;2023-04-20T00:16:10;94535.88;;;10.49;100.00
6030;BME280;3043;42.682;23.376;2023-04-20T00:18:35;94534.81;;;10.54;100.00
6030;BME280;3043;42.682;23.376;2023-04-20T00:21:01;94530.88;;;10.43;100.00
6030;BME280;3043;42.682;23.376;2023-04-20T00:23:27;94523.34;;;10.63;100.00
6030;BME280;3043;42.682;23.376;2023-04-20T00:25:52;94531.41;;;10.54;100.00
6030;BME280;3043;42.682;23.376;2023-04-20T00:28:18;94531.69;;;10.71;100.00
6030;BME280;3043;42.682;23.376;2023-04-20T00:30:44;94524.25;;;10.60;100.00
6030;BME280;3043;42.682;23.376;2023-04-20T00:33:09;94517.97;;;10.69;100.00
6030;BME280;3043;42.682;23.376;2023-04-20T00:35:34;94530.69;;;10.49;100.00
6030;BME280;3043;42.682;23.376;2023-04-20T00:38:00;94521.81;;;10.56;100.00
6030;BME280;3043;42.682;23.376;2023-04-20T00:40:25;94518.25;;;10.60;100.00
6030;BME280;3043;42.682;23.376;2023-04-20T00:42:51;94525.91;;;10.37;100.00
6030;BME280;3043;42.682;23.376;2023-04-20T00:45:16;94518.66;;;10.48;100.00
6030;BME280;3043;42.682;23.376;2023-04-20T00:47:41;94517.84;;;10.46;100.00
6030;BME280;3043;42.682;23.376;2023-04-20T00:50:07;94518.66;;;10.48;100.00
6030;BME280;3043;42.682;23.376;2023-04-20T00:52:33;94516.31;;;10.40;100.00
6030;BME280;3043;42.682;23.376;2023-04-20T00:54:59;94519.69;;;10.42;100.00
6030;BME280;3043;42.682;23.376;2023-04-20T00:57:25;94518.56;;;10.23;100.00
6030;BME280;3043;42.682;23.376;2023-04-20T00:59:52;94509.59;;;10.06;100.00
6030;BME280;3043;42.682;23.376;2023-04-20T01:02:17;94516.56;;;10.04;100.00
6030;BME280;3043;42.682;23.376;2023-04-20T01:04:45;94519.56;;;9.90;100.00
6030;BME280;3043;42.682;23.376;2023-04-20T01:07:10;94508.09;;;9.99;100.00
6030;BME280;3043;42.682;23.376;2023-04-20T01:09:37;94513.63;;;9.87;100.00
6030;BME280;3043;42.682;23.376;2023-04-20T01:12:04;94510.59;;;10.02;100.00
6030;BME280;3043;42.682;23.376;2023-04-20T01:14:29;94511.56;;;9.98;100.00
6030;BME280;3043;42.682;23.376;2023-04-20T01:16:54;94510.50;;;10.05;100.00
6030;BME280;3043;42.682;23.376;2023-04-20T01:19:20;94516.56;;;10.04;100.00
6030;BME280;3043;42.682;23.376;2023-04-20T01:21:46;94508.00;;;10.02;100.00
6030;BME280;3043;42.682;23.376;2023-04-20T01:24:12;94526.41;;;9.91;100.00
6030;BME280;3043;42.682;23.376;2023-04-20T01:26:37;94511.47;;;10.01;100.00
6030;BME280;3043;42.682;23.376;2023-04-20T01:29:03;94506.50;;;9.95;100.00
6030;BME280;3043;42.682;23.376;2023-04-20T01:31:29;94505.06;;;9.85;100.00
6030;BME280;3043;42.682;23.376;2023-04-20T01:33:54;94506.78;;;9.86;100.00
6030;BME280;3043;42.682;23.376;2023-04-20T01:36:20;94517.13;;;9.86;100.00
6030;BME280;3043;42.682;23.376;2023-04-20T01:38:45;94509.44;;;9.83;100.00
6030;BME280;3043;42.682;23.376;2023-04-20T01:41:11;94504.47;;;9.77;100.00
6030;BME280;3043;42.682;23.376;2023-04-20T01:43:37;94502.91;;;9.99;100.00
6030;BME280;3043;42.682;23.376;2023-04-20T01:46:03;94492.66;;;9.96;100.00
6030;BME280;3043;42.682;23.376;2023-04-20T01:48:29;94493.75;;;9.89;100.00
6030;BME280;3043;42.682;23.376;2023-04-20T01:50:55;94494.63;;;9.88;100.00
6030;BME280;3043;42.682;23.376;2023-04-20T01:53:20;94498.03;;;9.90;100.00
6030;BME280;3043;42.682;23.376;2023-04-20T01:55:46;94495.88;;;10.04;100.00
6030;BME280;3043;42.682;23.376;2023-04-20T01:58:12;94499.00;;;10.15;100.00
6030;BME280;3043;42.682;23.376;2023-04-20T02:00:38;94501.00;;;10.07;100.00
6030;BME280;3043;42.682;23.376;2023-04-20T02:03:03;94492.31;;;10.08;100.00
6030;BME280;3043;42.682;23.376;2023-04-20T02:05:29;94494.94;;;10.06;100.00
6030;BME280;3043;42.682;23.376;2023-04-20T02:07:54;94490.91;;;9.98;100.00
6030;BME280;3043;42.682;23.376;2023-04-20T02:10:20;94489.66;;;9.82;100.00
6030;BME280;3043;42.682;23.376;2023-04-20T02:12:46;94494.19;;;9.74;100.00
6030;BME280;3043;42.682;23.376;2023-04-20T02:15:12;94503.56;;;9.78;100.00
6030;BME280;3043;42.682;23.376;2023-04-20T02:17:37;94499.03;;;9.86;100.00
6030;BME280;3043;42.682;23.376;2023-04-20T02:20:03;94495.00;;;9.76;100.00
6030;BME280;3043;42.682;23.376;2023-04-20T02:22:33;94498.56;;;9.72;100.00
6030;BME280;3043;42.682;23.376;2023-04-20T02:25:03;94501.03;;;9.76;100.00
6030;BME280;3043;42.682;23.376;2023-04-20T02:27:32;94502.66;;;9.79;100.00
6030;BME280;3043;42.682;23.376;2023-04-20T02:29:58;94502.84;;;9.73;100.00
6030;BME280;3043;42.682;23.376;2023-04-20T02:32:24;94498.22;;;9.84;100.00
6030;BME280;3043;42.682;23.376;2023-04-20T02:34:50;94501.78;;;9.80;100.00
6030;BME280;3043;42.682;23.376;2023-04-20T02:37:15;94495.97;;;9.72;100.00
6030;BME280;3043;42.682;23.376;2023-04-20T02:39:40;94501.19;;;9.70;100.00
6030;BME280;3043;42.682;23.376;2023-04-20T02:42:06;94499.53;;;9.68;100.00
6030;BME280;3043;42.682;23.376;2023-04-20T02:44:31;94495.84;;;9.76;100.00
6030;BME280;3043;42.682;23.376;2023-04-20T02:46:57;94500.25;;;9.73;100.00
6030;BME280;3043;42.682;23.376;2023-04-20T02:49:22;94503.75;;;9.72;100.00
6030;BME280;3043;42.682;23.376;2023-04-20T02:51:48;94497.03;;;9.65;100.00
6030;BME280;3043;42.682;23.376;2023-04-20T02:54:13;94488.50;;;9.63;100.00
6030;BME280;3043;42.682;23.376;2023-04-20T02:56:38;94500.53;;;9.64;100.00
6030;BME280;3043;42.682;23.376;2023-04-20T02:59:04;94498.94;;;9.60;100.00
6030;BME280;3043;42.682;23.376;2023-04-20T03:01:29;94496.03;;;9.70;100.00
6030;BME280;3043;42.682;23.376;2023-04-20T03:03:55;94487.38;;;9.71;100.00
6030;BME280;3043;42.682;23.376;2023-04-20T03:06:20;94492.78;;;9.64;100.00
6030;BME280;3043;42.682;23.376;2023-04-20T03:08:46;94500.44;;;9.67;100.00
6030;BME280;3043;42.682;23.376;2023-04-20T03:11:11;94493.22;;;9.78;100.00
6030;BME280;3043;42.682;23.376;2023-04-20T03:13:36;94491.94;;;9.62;100.00
6030;BME280;3043;42.682;23.376;2023-04-20T03:16:02;94498.38;;;9.78;100.00
6030;BME280;3043;42.682;23.376;2023-04-20T03:18:29;94501.94;;;9.74;100.00
6030;BME280;3043;42.682;23.376;2023-04-20T03:20:54;94496.06;;;9.69;100.00
6030;BME280;3043;42.682;23.376;2023-04-20T03:23:20;94493.66;;;9.63;100.00
6030;BME280;3043;42.682;23.376;2023-04-20T03:25:46;94488.41;;;9.66;100.00
6030;BME280;3043;42.682;23.376;2023-04-20T03:28:12;94501.31;;;9.95;100.00
6030;BME280;3043;42.682;23.376;2023-04-20T03:30:37;94503.09;;;9.93;100.00
6030;BME280;3043;42.682;23.376;2023-04-20T03:33:03;94496.78;;;10.01;100.00
6030;BME280;3043;42.682;23.376;2023-04-20T03:35:28;94504.41;;;10.07;100.00
6030;BME280;3043;42.682;23.376;2023-04-20T03:37:54;94499.09;;;10.12;100.00
6030;BME280;3043;42.682;23.376;2023-04-20T03:40:19;94487.06;;;10.11;100.00
6030;BME280;3043;42.682;23.376;2023-04-20T03:42:45;94498.44;;;10.33;100.00
6030;BME280;3043;42.682;23.376;2023-04-20T03:45:10;94494.97;;;10.34;100.00
6030;BME280;3043;42.682;23.376;2023-04-20T03:47:36;94491.28;;;10.41;100.00
6030;BME280;3043;42.682;23.376;2023-04-20T03:50:02;94494.06;;;10.35;100.00
6030;BME280;3043;42.682;23.376;2023-04-20T03:52:28;94498.53;;;10.56;100.00
6030;BME280;3043;42.682;23.376;2023-04-20T03:54:53;94504.22;;;10.67;100.00
6030;BME280;3043;42.682;23.376;2023-04-20T03:57:19;94509.00;;;10.79;100.00
6030;BME280;3043;42.682;23.376;2023-04-20T03:59:44;94508.69;;;10.88;100.00
6030;BME280;3043;42.682;23.376;2023-04-20T04:02:10;94508.78;;;10.85;100.00
6030;BME280;3043;42.682;23.376;2023-04-20T04:04:38;94507.50;;;10.72;100.00
6030;BME280;3043;42.682;23.376;2023-04-20T04:07:03;94513.41;;;10.75;100.00
6030;BME280;3043;42.682;23.376;2023-04-20T04:09:29;94514.66;;;10.90;100.00
6030;BME280;3043;42.682;23.376;2023-04-20T04:11:54;94518.53;;;11.03;100.00
6030;BME280;3043;42.682;23.376;2023-04-20T04:14:21;94526.66;;;10.93;100.00
6030;BME280;3043;42.682;23.376;2023-04-20T04:16:47;94525.81;;;10.92;100.00
6030;BME280;3043;42.682;23.376;2023-04-20T04:19:12;94517.16;;;10.93;100.00
6030;BME280;3043;42.682;23.376;2023-04-20T04:21:37;94520.19;;;10.79;100.00
6030;BME280;3043;42.682;23.376;2023-04-20T04:24:03;94519.44;;;10.76;100.00
6030;BME280;3043;42.682;23.376;2023-04-20T04:26:29;94523.88;;;10.72;100.00
6030;BME280;3043;42.682;23.376;2023-04-20T04:28:56;94526.50;;;10.71;100.00
6030;BME280;3043;42.682;23.376;2023-04-20T04:31:22;94528.03;;;10.78;100.00
6030;BME280;3043;42.682;23.376;2023-04-20T04:33:48;94523.44;;;10.60;100.00
6030;BME280;3043;42.682;23.376;2023-04-20T04:36:14;94523.63;;;10.54;100.00
6030;BME280;3043;42.682;23.376;2023-04-20T04:38:40;94523.94;;;10.45;100.00
6030;BME280;3043;42.682;23.376;2023-04-20T04:41:08;94528.81;;;10.54;100.00
6030;BME280;3043;42.682;23.376;2023-04-20T04:43:34;94531.44;;;10.52;100.00
6030;BME280;3043;42.682;23.376;2023-04-20T04:46:05;94530.19;;;10.64;100.00
6030;BME280;3043;42.682;23.376;2023-04-20T04:48:32;94536.97;;;10.68;100.00
6030;BME280;3043;42.682;23.376;2023-04-20T04:50:59;94535.94;;;10.73;100.00
6030;BME280;3043;42.682;23.376;2023-04-20T04:53:25;94540.16;;;10.76;100.00
6030;BME280;3043;42.682;23.376;2023-04-20T04:55:50;94534.06;;;10.78;100.00
6030;BME280;3043;42.682;23.376;2023-04-20T04:58:15;94545.44;;;10.73;100.00
6030;BME280;3043;42.682;23.376;2023-04-20T05:00:41;94539.75;;;10.88;100.00
6030;BME280;3043;42.682;23.376;2023-04-20T05:03:06;94540.06;;;10.79;100.00
6030;BME280;3043;42.682;23.376;2023-04-20T05:05:32;94547.25;;;10.96;100.00
6030;BME280;3043;42.682;23.376;2023-04-20T05:07:57;94547.91;;;11.02;100.00
6030;BME280;3043;42.682;23.376;2023-04-20T05:10:23;94555.00;;;11.22;100.00
6030;BME280;3043;42.682;23.376;2023-04-20T05:12:48;94555.31;;;11.13;100.00
6030;BME280;3043;42.682;23.376;2023-04-20T05:15:13;94549.34;;;11.11;100.00
6030;BME280;3043;42.682;23.376;2023-04-20T05:17:39;94549.41;;;11.09;100.00
6030;BME280;3043;42.682;23.376;2023-04-20T05:20:05;94544.72;;;10.94;100.00
6030;BME280;3043;42.682;23.376;2023-04-20T05:22:32;94550.47;;;11.04;100.00
6030;BME280;3043;42.682;23.376;2023-04-20T05:24:57;94547.81;;;11.05;100.00
6030;BME280;3043;42.682;23.376;2023-04-20T05:27:22;94553.00;;;11.05;100.00
6030;BME280;3043;42.682;23.376;2023-04-20T05:29:48;94551.22;;;11.07;100.00
6030;BME280;3043;42.682;23.376;2023-04-20T05:32:13;94550.59;;;11.25;100.00
6030;BME280;3043;42.682;23.376;2023-04-20T05:34:38;94557.34;;;11.29;100.00
6030;BME280;3043;42.682;23.376;2023-04-20T05:37:04;94558.19;;;11.54;100.00
6030;BME280;3043;42.682;23.376;2023-04-20T05:39:30;94562.00;;;11.44;100.00
6030;BME280;3043;42.682;23.376;2023-04-20T05:41:55;94569.50;;;11.27;100.00
6030;BME280;3043;42.682;23.376;2023-04-20T05:44:22;94562.31;;;11.35;100.00
6030;BME280;3043;42.682;23.376;2023-04-20T05:46:47;94561.53;;;11.33;100.00
6030;BME280;3043;42.682;23.376;2023-04-20T05:49:13;94565.31;;;11.23;100.00
6030;BME280;3043;42.682;23.376;2023-04-20T05:51:38;94561.56;;;11.07;100.00
6030;BME280;3043;42.682;23.376;2023-04-20T05:54:04;94562.84;;;11.20;100.00
6030;BME280;3043;42.682;23.376;2023-04-20T05:56:29;94563.50;;;11.27;100.00
6030;BME280;3043;42.682;23.376;2023-04-20T05:58:55;94558.31;;;11.51;100.00
6030;BME280;3043;42.682;23.376;2023-04-20T06:01:21;94560.78;;;11.54;100.00
6030;BME280;3043;42.682;23.376;2023-04-20T06:03:46;94554.38;;;11.40;100.00
6030;BME280;3043;42.682;23.376;2023-04-20T06:06:13;94564.59;;;11.44;100.00
6030;BME280;3043;42.682;23.376;2023-04-20T06:08:39;94561.34;;;11.39;100.00
6030;BME280;3043;42.682;23.376;2023-04-20T06:11:04;94554.31;;;11.41;100.00
6030;BME280;3043;42.682;23.376;2023-04-20T06:13:30;94559.13;;;11.27;100.00
6030;BME280;3043;42.682;23.376;2023-04-20T06:15:55;94561.81;;;11.24;100.00
6030;BME280;3043;42.682;23.376;2023-04-20T06:18:21;94569.31;;;11.33;100.00
6030;BME280;3043;42.682;23.376;2023-04-20T06:20:46;94556.94;;;11.66;100.00
6030;BME280;3043;42.682;23.376;2023-04-20T06:23:12;94566.13;;;11.74;100.00
6030;BME280;3043;42.682;23.376;2023-04-20T06:25:38;94558.13;;;11.80;100.00
6030;BME280;3043;42.682;23.376;2023-04-20T06:28:04;94566.84;;;12.02;100.00
6030;BME280;3043;42.682;23.376;2023-04-20T06:30:29;94568.75;;;11.97;100.00
6030;BME280;3043;42.682;23.376;2023-04-20T06:32:55;94566.03;;;12.00;100.00
6030;BME280;3043;42.682;23.376;2023-04-20T06:35:21;94561.41;;;11.85;100.00
6030;BME280;3043;42.682;23.376;2023-04-20T06:37:47;94572.72;;;12.07;100.00
6030;BME280;3043;42.682;23.376;2023-04-20T06:40:13;94571.22;;;12.00;100.00
6030;BME280;3043;42.682;23.376;2023-04-20T06:42:39;94574.81;;;11.73;100.00
6030;BME280;3043;42.682;23.376;2023-04-20T06:45:05;94572.22;;;11.73;100.00
6030;BME280;3043;42.682;23.376;2023-04-20T06:47:31;94583.72;;;11.66;100.00
6030;BME280;3043;42.682;23.376;2023-04-20T06:49:58;94564.84;;;11.61;100.00
6030;BME280;3043;42.682;23.376;2023-04-20T06:52:24;94579.81;;;11.53;100.00
6030;BME280;3043;42.682;23.376;2023-04-20T06:54:50;94581.78;;;11.47;100.00
6030;BME280;3043;42.682;23.376;2023-04-20T06:57:15;94585.91;;;11.52;100.00
6030;BME280;3043;42.682;23.376;2023-04-20T06:59:41;94578.03;;;11.55;100.00
6030;BME280;3043;42.682;23.376;2023-04-20T07:02:06;94585.06;;;11.76;100.00
6030;BME280;3043;42.682;23.376;2023-04-20T07:04:31;94584.63;;;11.88;100.00
6030;BME280;3043;42.682;23.376;2023-04-20T07:06:57;94586.78;;;12.00;100.00
6030;BME280;3043;42.682;23.376;2023-04-20T07:09:22;94596.00;;;12.09;100.00
6030;BME280;3043;42.682;23.376;2023-04-20T07:11:49;94596.50;;;11.95;100.00
6030;BME280;3043;42.682;23.376;2023-04-20T07:14:14;94589.44;;;11.99;100.00
6030;BME280;3043;42.682;23.376;2023-04-20T07:16:40;94594.22;;;12.09;100.00
6030;BME280;3043;42.682;23.376;2023-04-20T07:19:05;94594.50;;;12.25;100.00
6030;BME280;3043;42.682;23.376;2023-04-20T07:21:31;94596.84;;;11.86;100.00
6030;BME280;3043;42.682;23.376;2023-04-20T07:23:56;94594.13;;;12.12;100.00
6030;BME280;3043;42.682;23.376;2023-04-20T07:26:23;94594.22;;;12.32;100.00
6030;BME280;3043;42.682;23.376;2023-04-20T07:28:50;94585.22;;;12.19;100.00
6030;BME280;3043;42.682;23.376;2023-04-20T07:31:16;94597.34;;;12.42;100.00
6030;BME280;3043;42.682;23.376;2023-04-20T07:33:41;94602.13;;;12.52;100.00
6030;BME280;3043;42.682;23.376;2023-04-20T07:36:08;94607.06;;;12.58;100.00
6030;BME280;3043;42.682;23.376;2023-04-20T07:38:33;94603.81;;;12.75;100.00
6030;BME280;3043;42.682;23.376;2023-04-20T07:40:59;94598.31;;;12.83;100.00
6030;BME280;3043;42.682;23.376;2023-04-20T07:43:24;94588.31;;;12.95;100.00
6030;BME280;3043;42.682;23.376;2023-04-20T07:45:49;94597.38;;;13.07;100.00
6030;BME280;3043;42.682;23.376;2023-04-20T07:48:15;94603.88;;;13.38;100.00
6030;BME280;3043;42.682;23.376;2023-04-20T07:50:40;94586.91;;;13.90;100.00
6030;BME280;3043;42.682;23.376;2023-04-20T07:53:06;94596.00;;;13.80;100.00
6030;BME280;3043;42.682;23.376;2023-04-20T07:55:32;94600.38;;;14.38;100.00
6030;BME280;3043;42.682;23.376;2023-04-20T07:57:57;94603.16;;;14.89;100.00
6030;BME280;3043;42.682;23.376;2023-04-20T08:00:23;94600.69;;;15.57;100.00
6030;BME280;3043;42.682;23.376;2023-04-20T08:02:49;94600.63;;;15.59;100.00
6030;BME280;3043;42.682;23.376;2023-04-20T08:05:14;94611.44;;;15.68;100.00
6030;BME280;3043;42.682;23.376;2023-04-20T08:07:40;94602.66;;;16.69;100.00
6030;BME280;3043;42.682;23.376;2023-04-20T08:10:06;94609.34;;;17.21;100.00
6030;BME280;3043;42.682;23.376;2023-04-20T08:12:32;94606.19;;;17.45;100.00
6030;BME280;3043;42.682;23.376;2023-04-20T08:14:57;94590.34;;;17.02;100.00
6030;BME280;3043;42.682;23.376;2023-04-20T08:17:26;94606.44;;;17.86;100.00
6030;BME280;3043;42.682;23.376;2023-04-20T08:19:52;94600.31;;;18.29;97.01
6030;BME280;3043;42.682;23.376;2023-04-20T08:22:17;94608.41;;;18.40;95.81
6030;BME280;3043;42.682;23.376;2023-04-20T08:24:43;94608.38;;;17.83;98.97
6030;BME280;3043;42.682;23.376;2023-04-20T08:27:08;94609.88;;;17.41;100.00
6030;BME280;3043;42.682;23.376;2023-04-20T08:29:34;94610.94;;;17.08;100.00
6030;BME280;3043;42.682;23.376;2023-04-20T08:31:59;94614.72;;;17.49;100.00
6030;BME280;3043;42.682;23.376;2023-04-20T08:34:25;94604.28;;;16.87;100.00
6030;BME280;3043;42.682;23.376;2023-04-20T08:36:51;94607.06;;;16.53;100.00
6030;BME280;3043;42.682;23.376;2023-04-20T08:39:20;94614.72;;;15.89;100.00
6030;BME280;3043;42.682;23.376;2023-04-20T08:41:49;94604.00;;;15.08;100.00
6030;BME280;3043;42.682;23.376;2023-04-20T08:44:18;94608.03;;;14.78;100.00
6030;BME280;3043;42.682;23.376;2023-04-20T08:46:46;94605.53;;;15.12;100.00
6030;BME280;3043;42.682;23.376;2023-04-20T08:49:14;94606.75;;;15.22;100.00
6030;BME280;3043;42.682;23.376;2023-04-20T08:51:40;94604.09;;;14.88;100.00
6030;BME280;3043;42.682;23.376;2023-04-20T08:54:05;94600.53;;;15.08;100.00
6030;BME280;3043;42.682;23.376;2023-04-20T08:56:39;94597.78;;;15.63;100.00
6030;BME280;3043;42.682;23.376;2023-04-20T08:59:05;94605.56;;;16.15;100.00
6030;BME280;3043;42.682;23.376;2023-04-20T09:01:37;94604.75;;;16.47;100.00
6030;BME280;3043;42.682;23.376;2023-04-20T09:04:24;94603.53;;;16.20;100.00
6030;BME280;3043;42.682;23.376;2023-04-20T09:06:53;94599.97;;;16.05;100.00
6030;BME280;3043;42.682;23.376;2023-04-20T09:09:20;94615.88;;;16.00;100.00
6030;BME280;3043;42.682;23.376;2023-04-20T09:11:46;94605.13;;;15.89;100.00
6030;BME280;3043;42.682;23.376;2023-04-20T09:14:15;94598.31;;;16.20;100.00
6030;BME280;3043;42.682;23.376;2023-04-20T09:16:55;94599.06;;;15.38;100.00
6030;BME280;3043;42.682;23.376;2023-04-20T09:19:25;94598.41;;;15.33;100.00
6030;BME280;3043;42.682;23.376;2023-04-20T09:21:52;94579.59;;;15.09;100.00
6030;BME280;3043;42.682;23.376;2023-04-20T09:24:19;94591.41;;;15.16;100.00
6030;BME280;3043;42.682;23.376;2023-04-20T09:26:45;94599.31;;;15.67;100.00
6030;BME280;3043;42.682;23.376;2023-04-20T09:29:21;94596.84;;;15.81;100.00
6030;BME280;3043;42.682;23.376;2023-04-20T09:31:48;94588.59;;;16.06;100.00
6030;BME280;3043;42.682;23.376;2023-04-20T09:34:14;94590.88;;;16.62;100.00
6030;BME280;3043;42.682;23.376;2023-04-20T09:36:41;94594.06;;;16.67;100.00
6030;BME280;3043;42.682;23.376;2023-04-20T09:39:11;94591.72;;;17.09;100.00
6030;BME280;3043;42.682;23.376;2023-04-20T09:41:38;94598.63;;;16.94;100.00
6030;BME280;3043;42.682;23.376;2023-04-20T09:44:05;94589.59;;;16.69;100.00
6030;BME280;3043;42.682;23.376;2023-04-20T09:46:32;94588.25;;;16.62;100.00
6030;BME280;3043;42.682;23.376;2023-04-20T09:48:59;94589.63;;;17.00;100.00
6030;BME280;3043;42.682;23.376;2023-04-20T09:51:28;94581.91;;;17.73;100.00
6030;BME280;3043;42.682;23.376;2023-04-20T09:53:57;94584.88;;;18.11;97.92
6030;BME280;3043;42.682;23.376;2023-04-20T09:56:23;94586.41;;;17.71;97.97
6030;BME280;3043;42.682;23.376;2023-04-20T09:58:50;94585.94;;;17.93;98.58
6030;BME280;3043;42.682;23.376;2023-04-20T10:01:17;94578.72;;;17.82;99.21
6030;BME280;3043;42.682;23.376;2023-04-20T10:03:43;94571.13;;;18.35;93.68
6030;BME280;3043;42.682;23.376;2023-04-20T10:06:28;94574.88;;;18.31;91.78
6030;BME280;3043;42.682;23.376;2023-04-20T10:08:54;94576.56;;;17.60;96.97
6030;BME280;3043;42.682;23.376;2023-04-20T10:11:39;94563.69;;;17.11;100.00
6030;BME280;3043;42.682;23.376;2023-04-20T10:14:17;94571.78;;;17.22;100.00
6030;BME280;3043;42.682;23.376;2023-04-20T10:16:43;94575.78;;;17.43;100.00
6030;BME280;3043;42.682;23.376;2023-04-20T10:19:09;94563.56;;;17.59;98.05
6030;BME280;3043;42.682;23.376;2023-04-20T10:21:44;94561.81;;;17.44;100.00
6030;BME280;3043;42.682;23.376;2023-04-20T10:24:10;94559.19;;;18.45;95.28
6030;BME280;3043;42.682;23.376;2023-04-20T10:26:41;94558.59;;;18.26;92.54
6030;BME280;3043;42.682;23.376;2023-04-20T10:29:06;94552.66;;;19.19;88.58
6030;BME280;3043;42.682;23.376;2023-04-20T10:31:36;94554.09;;;20.16;77.47
6030;BME280;3043;42.682;23.376;2023-04-20T10:34:03;94550.28;;;19.56;76.98
6030;BME280;3043;42.682;23.376;2023-04-20T10:36:30;94558.53;;;19.76;75.07
6030;BME280;3043;42.682;23.376;2023-04-20T10:38:57;94549.81;;;19.76;78.03
6030;BME280;3043;42.682;23.376;2023-04-20T10:41:23;94552.06;;;20.57;73.88
6030;BME280;3043;42.682;23.376;2023-04-20T10:43:49;94555.09;;;20.51;70.51
6030;BME280;3043;42.682;23.376;2023-04-20T10:46:21;94545.66;;;19.47;75.31
6030;BME280;3043;42.682;23.376;2023-04-20T10:48:55;94561.66;;;18.75;82.69
6030;BME280;3043;42.682;23.376;2023-04-20T10:51:21;94556.09;;;19.07;83.42
6030;BME280;3043;42.682;23.376;2023-04-20T10:53:59;94549.59;;;18.86;86.43
6030;BME280;3043;42.682;23.376;2023-04-20T10:56:25;94553.81;;;19.15;79.15
6030;BME280;3043;42.682;23.376;2023-04-20T10:58:51;94551.94;;;18.07;86.08
6030;BME280;3043;42.682;23.376;2023-04-20T11:01:17;94547.56;;;18.21;88.16
6030;BME280;3043;42.682;23.376;2023-04-20T11:03:48;94543.75;;;18.95;87.86
6030;BME280;3043;42.682;23.376;2023-04-20T11:06:16;94550.44;;;19.67;81.81
6030;BME280;3043;42.682;23.376;2023-04-20T11:08:42;94553.88;;;19.55;79.59
6030;BME280;3043;42.682;23.376;2023-04-20T11:11:20;94546.34;;;19.88;78.73
6030;BME280;3043;42.682;23.376;2023-04-20T11:13:48;94540.72;;;20.56;69.60
6030;BME280;3043;42.682;23.376;2023-04-20T11:16:16;94542.28;;;20.46;70.89
6030;BME280;3043;42.682;23.376;2023-04-20T11:18:52;94523.69;;;19.87;72.34
6030;BME280;3043;42.682;23.376;2023-04-20T11:21:19;94528.19;;;19.85;74.17
6030;BME280;3043;42.682;23.376;2023-04-20T11:23:45;94532.66;;;19.58;69.20
6030;BME280;3043;42.682;23.376;2023-04-20T11:26:11;94537.78;;;19.47;71.70
6030;BME280;3043;42.682;23.376;2023-04-20T11:28:36;94527.94;;;18.83;77.51
6030;BME280;3043;42.682;23.376;2023-04-20T11:31:02;94533.78;;;18.74;78.71
6030;BME280;3043;42.682;23.376;2023-04-20T11:33:29;94535.72;;;18.84;79.06
6030;BME280;3043;42.682;23.376;2023-04-20T11:35:58;94537.47;;;18.43;81.42
6030;BME280;3043;42.682;23.376;2023-04-20T11:40:52;94520.78;;;18.16;83.76
6030;BME280;3043;42.682;23.376;2023-04-20T11:43:18;94526.03;;;18.16;83.92
6030;BME280;3043;42.682;23.376;2023-04-20T11:45:43;94523.03;;;18.08;84.16
6030;BME280;3043;42.682;23.376;2023-04-20T11:48:08;94526.00;;;17.88;87.63
6030;BME280;3043;42.682;23.376;2023-04-20T11:50:34;94521.91;;;17.98;87.23
6030;BME280;3043;42.682;23.376;2023-04-20T11:53:00;94521.44;;;17.92;88.84
6030;BME280;3043;42.682;23.376;2023-04-20T11:55:26;94525.66;;;18.22;84.68
6030;BME280;3043;42.682;23.376;2023-04-20T11:57:51;94521.16;;;18.10;83.15
6030;BME280;3043;42.682;23.376;2023-04-20T12:00:17;94520.59;;;17.91;82.80
6030;BME280;3043;42.682;23.376;2023-04-20T12:02:43;94519.94;;;17.44;84.71
6030;BME280;3043;42.682;23.376;2023-04-20T12:05:09;94514.75;;;17.58;85.08
6030;BME280;3043;42.682;23.376;2023-04-20T12:07:35;94521.31;;;17.20;88.81
6030;BME280;3043;42.682;23.376;2023-04-20T12:10:01;94520.31;;;17.22;90.10
6030;BME280;3043;42.682;23.376;2023-04-20T12:12:26;94523.38;;;17.15;92.01
6030;BME280;3043;42.682;23.376;2023-04-20T12:14:52;94520.59;;;17.18;93.17
6030;BME280;3043;42.682;23.376;2023-04-20T12:17:17;94520.88;;;16.98;94.77
6030;BME280;3043;42.682;23.376;2023-04-20T12:19:43;94518.56;;;16.47;99.11
6030;BME280;3043;42.682;23.376;2023-04-20T12:22:08;94516.69;;;16.49;98.73
6030;BME280;3043;42.682;23.376;2023-04-20T12:24:33;94521.88;;;16.18;100.00
6030;BME280;3043;42.682;23.376;2023-04-20T12:26:59;94519.78;;;15.91;100.00
6030;BME280;3043;42.682;23.376;2023-04-20T12:29:25;94514.41;;;15.94;100.00
6030;BME280;3043;42.682;23.376;2023-04-20T12:31:51;94517.00;;;15.94;100.00
6030;BME280;3043;42.682;23.376;2023-04-20T12:34:16;94522.97;;;15.47;100.00
6030;BME280;3043;42.682;23.376;2023-04-20T12:36:41;94522.72;;;15.34;100.00
6030;BME280;3043;42.682;23.376;2023-04-20T12:39:07;94515.38;;;15.42;100.00
6030;BME280;3043;42.682;23.376;2023-04-20T12:41:32;94516.31;;;15.41;100.00
6030;BME280;3043;42.682;23.376;2023-04-20T12:43:58;94515.97;;;15.30;100.00
6030;BME280;3043;42.682;23.376;2023-04-20T12:46:24;94511.47;;;15.17;100.00
6030;BME280;3043;42.682;23.376;2023-04-20T12:48:49;94512.75;;;15.25;100.00
6030;BME280;3043;42.682;23.376;2023-04-20T12:51:14;94506.31;;;15.32;100.00
6030;BME280;3043;42.682;23.376;2023-04-20T12:53:40;94506.56;;;15.28;100.00
6030;BME280;3043;42.682;23.376;2023-04-20T12:56:06;94511.72;;;15.46;100.00
6030;BME280;3043;42.682;23.376;2023-04-20T12:58:31;94516.00;;;15.64;100.00
6030;BME280;3043;42.682;23.376;2023-04-20T13:00:57;94516.19;;;15.77;100.00
6030;BME280;3043;42.682;23.376;2023-04-20T13:03:23;94513.00;;;15.72;100.00